Terminal Aerodrome Forecast
Issued by NWS Louisville, KY

Home | Current Version | Previous Version | Text Only | Print | Product List | Glossary On
Versions: 1 2 3 4 5 6 7 8 9 10 11 12 13 14
000
FTUS43 KLMK 211737
TAFLEX
TAF
KLEX 211737Z 2118/2218 21006KT P6SM FEW050 FEW250
     FM221400 23008KT P6SM BKN045 BKN200=

USA.gov is the U.S. government's official web portal to all federal, state and local government web resources and services.